createdAt,value
2017-12-22T00:01:42.283Z,46.40
2017-12-22T00:04:08.130Z,46.48
2017-12-22T00:06:33.934Z,46.37
2017-12-22T00:08:59.750Z,46.93
2017-12-22T00:11:25.554Z,46.06
2017-12-22T00:13:51.364Z,46.59
2017-12-22T00:16:17.178Z,46.55
2017-12-22T00:18:43.034Z,46.26
2017-12-22T00:21:08.853Z,46.42
2017-12-22T00:23:34.707Z,46.43
2017-12-22T00:26:00.698Z,46.24
2017-12-22T00:28:26.546Z,46.59
2017-12-22T00:30:52.353Z,46.05
2017-12-22T00:33:18.158Z,46.08
2017-12-22T00:35:43.971Z,46.36
2017-12-22T00:38:09.938Z,46.27
2017-12-22T00:40:35.749Z,46.32
2017-12-22T00:43:01.562Z,46.53
2017-12-22T00:45:28.090Z,46.17
2017-12-22T00:47:54.632Z,46.78
2017-12-22T00:50:21.418Z,46.43
2017-12-22T00:52:47.886Z,46.70
2017-12-22T00:55:14.599Z,46.29
2017-12-22T00:57:40.482Z,47.47
2017-12-22T01:00:06.376Z,46.70
2017-12-22T01:02:32.230Z,46.23
2017-12-22T01:04:58.042Z,46.62
2017-12-22T01:07:24.074Z,46.65
2017-12-22T01:09:50.754Z,46.50
2017-12-22T01:12:17.515Z,46.16
2017-12-22T01:14:43.434Z,46.67
2017-12-22T01:17:15.383Z,47.28
2017-12-22T01:19:41.190Z,47.10
2017-12-22T01:22:07.982Z,46.71
2017-12-22T01:24:34.707Z,46.41
2017-12-22T01:27:00.520Z,47.15
2017-12-22T01:29:26.403Z,46.62
2017-12-22T01:31:52.214Z,46.52
2017-12-22T01:34:18.030Z,46.55
2017-12-22T01:36:43.986Z,46.92
2017-12-22T01:39:09.803Z,46.24
2017-12-22T01:41:35.685Z,45.82
2017-12-22T01:44:02.489Z,46.90
2017-12-22T01:46:29.254Z,45.88
2017-12-22T01:48:55.066Z,46.33
2017-12-22T01:51:20.874Z,46.24
2017-12-22T01:53:46.685Z,46.17
2017-12-22T01:56:12.530Z,46.00
2017-12-22T01:58:38.379Z,46.16
2017-12-22T02:01:04.196Z,46.74
2017-12-22T02:03:30.963Z,46.20
2017-12-22T02:05:57.791Z,46.35
2017-12-22T02:08:23.634Z,46.20
2017-12-22T02:10:49.438Z,46.30
2017-12-22T02:13:15.287Z,46.23
2017-12-22T02:15:41.095Z,46.06
2017-12-22T02:18:06.954Z,46.09
2017-12-22T02:20:32.765Z,46.06
2017-12-22T02:22:58.583Z,46.10
2017-12-22T02:25:24.426Z,45.88
2017-12-22T02:27:50.327Z,46.14
2017-12-22T02:30:16.139Z,46.16
2017-12-22T02:32:41.946Z,46.33
2017-12-22T02:35:07.886Z,46.09
2017-12-22T02:37:33.704Z,46.38
2017-12-22T02:39:59.520Z,46.13
2017-12-22T02:42:25.336Z,46.26
2017-12-22T02:44:51.147Z,46.05
2017-12-22T02:47:16.966Z,46.73
2017-12-22T02:49:42.820Z,46.00
2017-12-22T02:52:08.702Z,46.06
2017-12-22T02:54:34.515Z,46.26
2017-12-22T02:57:00.510Z,46.43
2017-12-22T02:59:26.384Z,46.35
2017-12-22T03:01:52.338Z,46.30
2017-12-22T03:04:18.154Z,46.19
2017-12-22T03:06:44.067Z,45.97
2017-12-22T03:09:09.887Z,46.09
2017-12-22T03:11:35.699Z,46.06
2017-12-22T03:14:01.532Z,46.25
2017-12-22T03:16:27.377Z,46.30
2017-12-22T03:18:53.190Z,46.35
2017-12-22T03:21:19.038Z,46.02
2017-12-22T03:23:44.875Z,46.16
2017-12-22T03:26:10.826Z,45.92
2017-12-22T03:28:36.650Z,46.04
2017-12-22T03:31:02.463Z,46.22
2017-12-22T03:33:28.506Z,45.93
2017-12-22T03:35:54.318Z,46.08
2017-12-22T03:38:20.146Z,45.94
2017-12-22T03:40:45.955Z,46.19
2017-12-22T03:43:11.771Z,46.04
2017-12-22T03:45:38.222Z,46.13
2017-12-22T03:48:04.034Z,46.15
2017-12-22T03:50:29.895Z,46.37
2017-12-22T03:52:55.722Z,46.19
2017-12-22T03:55:21.632Z,45.87
2017-12-22T03:57:47.458Z,45.78
2017-12-22T04:00:13.442Z,45.81
2017-12-22T04:02:39.301Z,45.56
2017-12-22T04:05:05.122Z,45.72
2017-12-22T04:07:30.946Z,45.77
2017-12-22T04:09:56.763Z,46.41
2017-12-22T04:12:22.582Z,45.76
2017-12-22T04:14:48.427Z,45.73
2017-12-22T04:17:14.275Z,45.83
2017-12-22T04:19:40.091Z,46.35
2017-12-22T04:22:05.990Z,46.18
2017-12-22T04:24:31.806Z,45.87
2017-12-22T04:26:57.658Z,46.35
2017-12-22T04:29:23.476Z,46.14
2017-12-22T04:31:49.339Z,46.44
2017-12-22T04:34:15.162Z,46.12
2017-12-22T04:36:41.143Z,46.06
2017-12-22T04:39:06.954Z,46.10
2017-12-22T04:41:32.771Z,46.33
2017-12-22T04:43:58.587Z,46.71
2017-12-22T04:46:24.403Z,46.78
2017-12-22T04:48:50.346Z,47.26
2017-12-22T04:51:16.170Z,46.63
2017-12-22T04:53:42.031Z,47.52
2017-12-22T04:56:07.890Z,46.73
2017-12-22T04:58:33.877Z,47.31
2017-12-22T05:00:59.694Z,46.76
2017-12-22T05:03:25.554Z,46.73
2017-12-22T05:05:51.376Z,46.79
2017-12-22T05:08:17.228Z,46.43
2017-12-22T05:10:43.058Z,46.31
2017-12-22T05:13:08.922Z,46.28
2017-12-22T05:15:34.743Z,46.63
2017-12-22T05:18:00.563Z,46.23
2017-12-22T05:20:26.375Z,46.88
2017-12-22T05:22:52.201Z,46.50
2017-12-22T05:25:18.186Z,46.13
2017-12-22T05:27:44.011Z,47.15
2017-12-22T05:30:09.860Z,46.78
2017-12-22T05:32:35.687Z,47.26
2017-12-22T05:35:01.503Z,46.75
2017-12-22T05:37:27.402Z,47.11
2017-12-22T05:39:53.230Z,46.57
2017-12-22T05:42:19.091Z,46.86
2017-12-22T05:44:45.039Z,46.91
2017-12-22T05:47:10.852Z,47.08
2017-12-22T05:49:36.671Z,46.64
2017-12-22T05:52:02.494Z,46.63
2017-12-22T05:54:28.311Z,46.48
2017-12-22T05:56:54.133Z,46.48
2017-12-22T05:59:19.954Z,47.43
2017-12-22T06:01:45.955Z,46.65
2017-12-22T06:04:11.773Z,46.54
2017-12-22T06:06:37.593Z,46.43
2017-12-22T06:09:03.453Z,46.43
2017-12-22T06:11:29.274Z,46.43
2017-12-22T06:13:55.127Z,46.18
2017-12-22T06:16:21.078Z,46.23
2017-12-22T06:18:46.942Z,46.21
2017-12-22T06:21:12.789Z,46.58
2017-12-22T06:23:38.611Z,45.74
2017-12-22T06:26:04.433Z,46.00
2017-12-22T06:28:30.379Z,46.01
2017-12-22T06:30:56.222Z,45.93
2017-12-22T06:33:22.047Z,46.06
2017-12-22T06:35:47.860Z,45.95
2017-12-22T06:38:13.679Z,46.17
2017-12-22T06:40:39.507Z,45.78
2017-12-22T06:43:05.346Z,45.84
2017-12-22T06:45:31.162Z,45.99
2017-12-22T06:47:56.988Z,46.63
2017-12-22T06:50:22.856Z,45.98
2017-12-22T06:52:48.671Z,46.18
2017-12-22T06:55:14.502Z,45.88
2017-12-22T06:57:40.339Z,45.67
2017-12-22T07:00:06.155Z,45.56
2017-12-22T07:02:31.970Z,45.88
2017-12-22T07:04:57.894Z,45.71
2017-12-22T07:07:23.723Z,46.21
2017-12-22T07:09:49.535Z,46.20
2017-12-22T07:12:15.371Z,46.02
2017-12-22T07:14:41.269Z,45.85
2017-12-22T07:17:07.086Z,45.89
2017-12-22T07:19:32.926Z,46.23
2017-12-22T07:21:58.839Z,46.04
2017-12-22T07:24:24.653Z,46.29
2017-12-22T07:26:50.466Z,45.96
2017-12-22T07:29:16.399Z,46.02
2017-12-22T07:31:42.222Z,46.23
2017-12-22T07:34:08.042Z,46.03
2017-12-22T07:36:33.899Z,46.11
2017-12-22T07:38:59.930Z,46.19
2017-12-22T07:41:25.750Z,46.20
2017-12-22T07:43:51.568Z,46.12
2017-12-22T07:46:17.392Z,45.82
2017-12-22T07:48:43.250Z,45.78
2017-12-22T07:51:09.072Z,45.60
2017-12-22T07:53:34.886Z,45.74
2017-12-22T07:56:00.739Z,45.77
2017-12-22T07:58:26.651Z,45.64
2017-12-22T08:00:52.499Z,45.60
2017-12-22T08:03:18.319Z,45.88
2017-12-22T08:05:51.171Z,46.07
2017-12-22T08:08:16.986Z,45.95
2017-12-22T08:10:42.810Z,45.92
2017-12-22T08:13:08.620Z,45.68
2017-12-22T08:15:34.484Z,45.76
2017-12-22T08:18:00.375Z,45.92
2017-12-22T08:20:26.235Z,45.80
2017-12-22T08:22:52.064Z,45.71
2017-12-22T08:25:17.935Z,45.68
2017-12-22T08:27:43.755Z,45.62
2017-12-22T08:30:09.811Z,45.79
2017-12-22T08:32:35.710Z,45.88
2017-12-22T08:35:01.732Z,45.89
2017-12-22T08:37:27.675Z,45.72
2017-12-22T08:39:53.577Z,45.64
2017-12-22T08:42:19.495Z,45.56
2017-12-22T08:44:45.358Z,45.76
2017-12-22T08:47:11.240Z,45.73
2017-12-22T08:49:37.061Z,45.73
2017-12-22T08:52:02.910Z,46.00
2017-12-22T08:54:28.948Z,45.82
2017-12-22T08:56:54.975Z,45.57
2017-12-22T08:59:20.898Z,45.75
2017-12-22T09:01:46.790Z,45.76
2017-12-22T09:04:12.622Z,46.08
2017-12-22T09:06:38.584Z,45.89
2017-12-22T09:09:04.551Z,45.91
2017-12-22T09:11:30.507Z,45.82
2017-12-22T09:13:57.385Z,45.89
2017-12-22T09:16:23.318Z,46.15
2017-12-22T09:18:49.179Z,46.23
2017-12-22T09:21:15.219Z,45.97
2017-12-22T09:23:41.208Z,46.04
2017-12-22T09:26:07.159Z,45.90
2017-12-22T09:28:33.174Z,46.03
2017-12-22T09:30:59.146Z,45.99
2017-12-22T09:33:24.972Z,46.42
2017-12-22T09:35:50.857Z,46.09
2017-12-22T09:38:16.698Z,46.45
2017-12-22T09:40:43.528Z,46.31
2017-12-22T09:43:10.350Z,46.02
2017-12-22T09:45:36.257Z,45.62
2017-12-22T09:48:02.247Z,45.49
2017-12-22T09:50:28.071Z,45.97
2017-12-22T09:52:53.957Z,45.78
2017-12-22T09:55:19.782Z,45.58
2017-12-22T09:57:45.647Z,45.98
2017-12-22T10:00:11.608Z,45.72
2017-12-22T10:02:37.426Z,45.83
2017-12-22T10:05:03.247Z,46.13
2017-12-22T10:07:29.767Z,45.83
2017-12-22T10:09:55.850Z,45.84
2017-12-22T10:12:21.902Z,45.74
2017-12-22T10:14:47.727Z,46.17
2017-12-22T10:17:13.687Z,46.02
2017-12-22T10:19:39.518Z,45.78
2017-12-22T10:22:05.539Z,46.54
2017-12-22T10:24:31.362Z,46.08
2017-12-22T10:26:57.182Z,45.54
2017-12-22T10:29:23.034Z,45.96
2017-12-22T10:31:48.847Z,46.61
2017-12-22T10:34:14.667Z,46.45
2017-12-22T10:36:40.636Z,46.48
2017-12-22T10:39:07.589Z,45.88
2017-12-22T10:41:33.512Z,46.78
2017-12-22T10:43:59.343Z,46.99
2017-12-22T10:46:25.169Z,46.12
2017-12-22T10:48:50.999Z,45.90
2017-12-22T10:51:16.822Z,46.31
2017-12-22T10:53:42.824Z,46.12
2017-12-22T10:56:08.738Z,46.21
2017-12-22T10:58:34.618Z,46.34
2017-12-22T11:01:00.439Z,45.98
2017-12-22T11:03:26.295Z,46.20
2017-12-22T11:05:52.116Z,46.35
2017-12-22T11:08:17.954Z,46.84
2017-12-22T11:10:43.979Z,46.60
2017-12-22T11:13:09.987Z,47.16
2017-12-22T11:15:35.917Z,46.70
2017-12-22T11:18:01.742Z,46.40
2017-12-22T11:20:27.566Z,46.27
2017-12-22T11:22:53.470Z,46.52
2017-12-22T11:25:19.288Z,46.28
2017-12-22T11:27:45.103Z,46.33
2017-12-22T11:30:10.928Z,46.49
2017-12-22T11:32:36.744Z,46.29
2017-12-22T11:35:02.563Z,46.04
2017-12-22T11:37:28.417Z,46.42
2017-12-22T11:39:54.230Z,46.39
2017-12-22T11:42:20.098Z,46.53
2017-12-22T11:44:45.966Z,46.36
2017-12-22T11:47:11.835Z,46.46
2017-12-22T11:49:37.658Z,46.24
2017-12-22T11:52:03.526Z,46.46
2017-12-22T11:54:29.391Z,46.60
2017-12-22T11:56:55.257Z,46.36
2017-12-22T11:59:21.082Z,46.46
2017-12-22T12:01:47.063Z,46.80
2017-12-22T12:04:12.913Z,46.21
2017-12-22T12:06:38.726Z,46.14
2017-12-22T12:09:04.549Z,46.69
2017-12-22T12:11:30.496Z,46.26
2017-12-22T12:13:57.325Z,46.41
2017-12-22T12:16:23.182Z,46.04
2017-12-22T12:18:49.303Z,47.05
2017-12-22T12:21:15.126Z,47.00
2017-12-22T12:23:41.199Z,47.09
2017-12-22T12:26:07.119Z,46.71
2017-12-22T12:28:32.955Z,46.34
2017-12-22T12:30:58.811Z,46.95
2017-12-22T12:33:24.668Z,46.55
2017-12-22T12:35:50.595Z,46.43
2017-12-22T12:38:16.526Z,46.20
2017-12-22T12:40:42.350Z,46.41
2017-12-22T12:43:08.280Z,46.40
2017-12-22T12:45:34.107Z,46.12
2017-12-22T12:47:59.931Z,46.25
2017-12-22T12:50:25.762Z,45.98
2017-12-22T12:52:51.595Z,46.79
2017-12-22T12:55:17.541Z,45.61
2017-12-22T12:57:43.387Z,45.57
2017-12-22T13:00:09.235Z,47.25
2017-12-22T13:02:35.317Z,47.25
2017-12-22T13:05:01.142Z,47.14
2017-12-22T13:07:26.960Z,46.51
2017-12-22T13:09:52.864Z,46.68
2017-12-22T13:12:18.681Z,46.50
2017-12-22T13:14:44.536Z,46.10
2017-12-22T13:17:10.350Z,46.67
2017-12-22T13:19:36.208Z,47.10
2017-12-22T13:22:02.028Z,47.81
2017-12-22T13:24:27.939Z,47.54
2017-12-22T13:26:53.763Z,47.37
2017-12-22T13:29:19.587Z,48.02
2017-12-22T13:31:45.410Z,47.90
2017-12-22T13:34:11.224Z,47.76
2017-12-22T13:36:37.087Z,48.42
2017-12-22T13:39:03.103Z,48.05
2017-12-22T13:41:28.979Z,47.88
2017-12-22T13:43:54.935Z,47.45
2017-12-22T13:46:20.795Z,47.63
2017-12-22T13:48:46.648Z,47.36
2017-12-22T13:51:12.583Z,47.75
2017-12-22T13:53:38.389Z,48.18
2017-12-22T13:56:04.210Z,47.22
2017-12-22T13:58:30.075Z,47.84
2017-12-22T14:00:56.795Z,47.46
2017-12-22T14:03:22.611Z,46.89
2017-12-22T14:05:48.538Z,47.68
2017-12-22T14:08:14.358Z,47.46
2017-12-22T14:10:40.218Z,48.68
2017-12-22T14:13:06.022Z,47.87
2017-12-22T14:15:31.838Z,47.54
2017-12-22T14:17:57.655Z,47.49
2017-12-22T14:20:23.528Z,47.57
2017-12-22T14:22:49.480Z,48.08
2017-12-22T14:25:15.301Z,48.47
2017-12-22T14:27:41.215Z,47.42
2017-12-22T14:30:07.038Z,47.56
2017-12-22T14:32:32.890Z,47.62
2017-12-22T14:34:58.715Z,47.83
2017-12-22T14:37:24.534Z,48.30
2017-12-22T14:39:50.418Z,47.25
2017-12-22T14:42:16.238Z,47.73
2017-12-22T14:44:42.064Z,47.56
2017-12-22T14:47:07.930Z,46.89
2017-12-22T14:49:33.750Z,47.25
2017-12-22T14:51:59.574Z,47.28
2017-12-22T14:54:25.416Z,46.65
2017-12-22T14:56:51.254Z,46.42
2017-12-22T14:59:17.075Z,46.09
2017-12-22T15:01:42.929Z,46.38
2017-12-22T15:04:08.791Z,45.51
2017-12-22T15:06:34.936Z,45.95
2017-12-22T15:09:00.767Z,46.57
2017-12-22T15:11:26.631Z,45.99
2017-12-22T15:13:52.669Z,46.27
2017-12-22T15:16:18.506Z,46.84
2017-12-22T15:18:44.497Z,46.91
2017-12-22T15:21:10.878Z,47.22
2017-12-22T15:23:36.835Z,46.60
2017-12-22T15:26:03.089Z,46.82
2017-12-22T15:28:29.124Z,46.87
2017-12-22T15:30:54.987Z,47.37
2017-12-22T15:33:20.815Z,47.23
2017-12-22T15:35:46.671Z,47.17
2017-12-22T15:38:12.526Z,46.68
2017-12-22T15:40:38.344Z,46.62
2017-12-22T15:43:04.209Z,46.46
2017-12-22T15:45:30.036Z,46.46
2017-12-22T15:47:55.894Z,46.60
2017-12-22T15:50:21.728Z,46.88
2017-12-22T15:52:47.583Z,47.07
2017-12-22T15:55:13.398Z,46.72
2017-12-22T15:57:39.243Z,46.43
2017-12-22T16:00:05.152Z,46.14
2017-12-22T16:02:30.972Z,46.39
2017-12-22T16:04:56.819Z,46.65
2017-12-22T16:07:22.686Z,46.84
2017-12-22T16:09:48.503Z,46.27
2017-12-22T16:12:14.350Z,46.33
2017-12-22T16:14:40.379Z,46.59
2017-12-22T16:17:06.188Z,46.72
2017-12-22T16:19:32.048Z,46.30
2017-12-22T16:21:57.926Z,46.35
2017-12-22T16:24:23.766Z,46.12
2017-12-22T16:26:49.581Z,46.29
2017-12-22T16:29:15.471Z,46.38
2017-12-22T16:31:41.288Z,46.87
2017-12-22T16:34:07.108Z,46.11
2017-12-22T16:36:32.950Z,45.93
2017-12-22T16:38:58.781Z,46.72
2017-12-22T16:41:24.596Z,46.13
2017-12-22T16:43:50.419Z,45.91
2017-12-22T16:46:16.246Z,45.95
2017-12-22T16:48:42.071Z,46.02
2017-12-22T16:51:07.912Z,46.89
2017-12-22T16:53:33.743Z,46.34
2017-12-22T16:55:59.735Z,46.77
2017-12-22T16:58:25.578Z,46.62
2017-12-22T17:00:51.403Z,46.30
2017-12-22T17:03:17.258Z,46.08
2017-12-22T17:05:43.118Z,45.74
2017-12-22T17:08:09.009Z,45.98
2017-12-22T17:13:23.424Z,45.84
2017-12-22T17:15:54.203Z,45.52
2017-12-22T17:18:23.476Z,45.53
2017-12-22T17:20:52.138Z,45.11
2017-12-22T17:23:22.130Z,45.26
2017-12-22T17:25:50.968Z,45.34
2017-12-22T17:28:18.055Z,45.16
2017-12-22T17:30:45.797Z,45.33
2017-12-22T17:33:14.725Z,45.41
2017-12-22T17:35:41.320Z,45.02
2017-12-22T17:38:11.470Z,44.67
2017-12-22T17:40:38.027Z,44.86
2017-12-22T17:43:07.202Z,45.26
2017-12-22T17:45:33.651Z,45.26
2017-12-22T17:48:00.187Z,45.10
2017-12-22T17:50:26.451Z,45.32
2017-12-22T17:52:52.736Z,45.92
2017-12-22T17:55:20.952Z,46.50
2017-12-22T17:57:47.157Z,45.32
2017-12-22T18:00:13.436Z,45.82
2017-12-22T18:02:39.760Z,45.30
2017-12-22T18:05:06.304Z,45.35
2017-12-22T18:07:33.875Z,45.28
2017-12-22T18:10:01.367Z,45.30
2017-12-22T18:12:27.414Z,45.36
2017-12-22T18:14:53.426Z,45.62
2017-12-22T18:17:19.250Z,45.57
2017-12-22T18:19:45.162Z,45.64
2017-12-22T18:22:11.181Z,45.39
2017-12-22T18:24:37.121Z,45.47
2017-12-22T18:27:03.263Z,45.64
2017-12-22T18:29:30.199Z,45.71
2017-12-22T18:31:56.048Z,45.41
2017-12-22T18:34:22.035Z,45.66
2017-12-22T18:36:47.891Z,45.46
2017-12-22T18:39:13.805Z,45.61
2017-12-22T18:41:39.627Z,45.72
2017-12-22T18:44:05.623Z,45.83
2017-12-22T18:46:31.599Z,45.75
2017-12-22T18:48:57.471Z,45.60
2017-12-22T18:51:23.416Z,45.63
2017-12-22T18:53:49.307Z,45.53
2017-12-22T18:56:15.323Z,45.76
2017-12-22T18:58:41.254Z,45.97
2017-12-22T19:01:07.174Z,45.85
2017-12-22T19:03:33.109Z,46.01
2017-12-22T19:05:59.028Z,45.79
2017-12-22T19:08:24.847Z,46.10
2017-12-22T19:10:50.674Z,46.01
2017-12-22T19:13:16.590Z,45.76
2017-12-22T19:15:42.618Z,45.74
2017-12-22T19:18:08.680Z,45.59
2017-12-22T19:20:34.567Z,45.84
2017-12-22T19:23:00.442Z,45.79
2017-12-22T19:25:26.411Z,45.92
2017-12-22T19:27:52.280Z,45.48
2017-12-22T19:30:18.107Z,46.29
2017-12-22T19:32:43.971Z,45.56
2017-12-22T19:35:09.804Z,45.33
2017-12-22T19:37:35.835Z,45.56
2017-12-22T19:40:01.663Z,45.35
2017-12-22T19:42:27.494Z,45.45
2017-12-22T19:44:53.336Z,45.80
2017-12-22T19:47:19.170Z,45.69
2017-12-22T19:49:45.035Z,45.58
2017-12-22T19:52:11.963Z,45.23
2017-12-22T19:54:37.783Z,45.67
2017-12-22T19:57:03.610Z,45.55
2017-12-22T19:59:29.619Z,45.54
2017-12-22T20:01:58.033Z,46.42
2017-12-22T20:04:26.241Z,45.52
2017-12-22T20:06:53.186Z,45.53
2017-12-22T20:12:19.412Z,45.86
2017-12-22T20:14:47.737Z,45.64
2017-12-22T20:17:15.679Z,45.34
2017-12-22T20:19:49.912Z,45.33
2017-12-22T20:22:19.856Z,45.43
2017-12-22T20:24:50.647Z,45.71
2017-12-22T20:27:19.340Z,45.77
2017-12-22T20:29:45.319Z,46.86
2017-12-22T20:32:11.221Z,45.69
2017-12-22T20:34:37.046Z,45.62
2017-12-22T20:37:03.054Z,45.51
2017-12-22T20:39:31.160Z,45.39
2017-12-22T20:41:57.390Z,45.32
2017-12-22T20:44:25.498Z,45.51
2017-12-22T20:46:52.724Z,45.40
2017-12-22T20:49:20.042Z,45.48
2017-12-22T20:51:48.666Z,45.40
2017-12-22T20:54:16.545Z,45.59
2017-12-22T20:56:42.392Z,45.63
2017-12-22T20:59:08.206Z,45.47
2017-12-22T21:01:34.067Z,45.55
2017-12-22T21:03:59.898Z,45.92
2017-12-22T21:06:25.798Z,45.52
2017-12-22T21:08:52.117Z,45.61
2017-12-22T21:11:17.961Z,45.43
2017-12-22T21:13:43.789Z,45.68
2017-12-22T21:16:09.704Z,45.33
2017-12-22T21:18:35.522Z,45.72
2017-12-22T21:21:02.066Z,45.04
2017-12-22T21:23:29.148Z,45.77
2017-12-22T21:25:54.974Z,45.67
2017-12-22T21:28:20.794Z,45.46
2017-12-22T21:30:47.423Z,45.90
2017-12-22T21:33:13.311Z,45.30
2017-12-22T21:35:39.140Z,45.85
2017-12-22T21:38:05.656Z,45.45
2017-12-22T21:40:32.910Z,45.47
2017-12-22T21:42:58.774Z,45.45
2017-12-22T21:45:24.600Z,45.39
2017-12-22T21:47:50.427Z,45.60
2017-12-22T21:50:16.842Z,45.14
2017-12-22T21:52:42.750Z,45.56
2017-12-22T21:55:08.607Z,45.60
2017-12-22T21:57:34.427Z,45.69
2017-12-22T22:00:00.285Z,45.39
2017-12-22T22:02:26.155Z,45.78
2017-12-22T22:04:51.991Z,45.52
2017-12-22T22:07:17.854Z,45.56
2017-12-22T22:09:43.786Z,45.46
2017-12-22T22:12:09.603Z,45.67
2017-12-22T22:14:36.418Z,45.68
2017-12-22T22:17:02.362Z,45.56
2017-12-22T22:19:29.042Z,45.70
2017-12-22T22:21:54.856Z,45.52
2017-12-22T22:24:20.675Z,45.99
2017-12-22T22:26:46.486Z,45.54
2017-12-22T22:29:12.346Z,45.50
2017-12-22T22:31:38.302Z,45.72
2017-12-22T22:34:04.114Z,45.51
2017-12-22T22:36:29.926Z,45.62
2017-12-22T22:38:55.747Z,45.31
2017-12-22T22:41:21.646Z,45.61
2017-12-22T22:43:47.462Z,45.68
2017-12-22T22:46:13.286Z,45.56
2017-12-22T22:48:39.256Z,45.74
2017-12-22T22:51:05.082Z,45.61
2017-12-22T22:53:30.919Z,45.61
2017-12-22T22:55:56.731Z,45.60
2017-12-22T22:58:22.555Z,45.75
2017-12-22T23:00:48.386Z,45.47
2017-12-22T23:03:14.198Z,45.25
2017-12-22T23:05:40.018Z,45.46
2017-12-22T23:08:05.831Z,45.50
2017-12-22T23:10:31.834Z,45.54
2017-12-22T23:12:57.658Z,45.48
2017-12-22T23:15:23.579Z,45.49
2017-12-22T23:17:49.410Z,45.27
2017-12-22T23:20:15.519Z,45.20
2017-12-22T23:22:41.334Z,45.43
2017-12-22T23:25:07.175Z,45.17
2017-12-22T23:27:32.991Z,45.28
2017-12-22T23:29:58.854Z,45.37
2017-12-22T23:32:24.670Z,45.45
2017-12-22T23:34:50.479Z,45.27
2017-12-22T23:37:16.299Z,45.45
2017-12-22T23:39:42.135Z,45.37
2017-12-22T23:42:07.986Z,45.70
2017-12-22T23:44:33.802Z,45.38
2017-12-22T23:46:59.735Z,45.36
2017-12-22T23:49:25.561Z,45.69
2017-12-22T23:51:51.376Z,45.26
2017-12-22T23:54:17.188Z,45.29
2017-12-22T23:56:43.008Z,45.47
2017-12-22T23:59:08.998Z,45.54
